Terminal Aerodrome Forecast
Issued by NWS

Home | Current Version | Previous Version | Text Only | Print | Product List | Glossary On
Versions: 1 2 3 4 5 6 7 8 9 10 11 12 13 14 15 16 17 18 19
000
FTUS45 KABQ 302320
TAFTCC
TAF
KTCC 302320Z 3100/3124 16011KT P6SM BKN250
     FM310200 20009KT P6SM BKN200
     FM311700 19013G21KT P6SM SCT150
     FM312000 21022G32KT P6SM SCT120=

USA.gov is the U.S. government's official web portal to all federal, state and local government web resources and services.